Time;durP1;ratioP1;P1;durP2;ratioP2;P2;SDS_P1;SDS_P2;PMS_P1;PMS_P2;Temp;Humidity;BMP_temperature;BMP_pressure;BME280_temperature;BME280_humidity;BME280_pressure;Samples;Min_cycle;Max_cycle;Signal;HPM_P1;HPM_P2
2024/03/25 00:01:24;;;;;;;4.93;2.45;;;;;;;9.13;57.74;96420.13;5019034;28;20033;-86
2024/03/25 00:03:50;;;;;;;5.18;2.47;;;;;;;9.03;57.96;96420.06;5010682;28;20056;-85
2024/03/25 00:06:15;;;;;;;5.57;2.03;;;;;;;9.00;58.32;96423.94;5015493;28;20438;-86
2024/03/25 00:08:40;;;;;;;4.10;2.20;;;;;;;8.98;58.26;96420.81;5010539;28;20035;-86
2024/03/25 00:11:06;;;;;;;6.28;2.45;;;;;;;9.03;58.34;96425.28;5021024;28;20132;-81
2024/03/25 00:13:31;;;;;;;5.57;2.47;;;;;;;9.06;57.91;96431.75;5031936;28;20440;-81
2024/03/25 00:15:57;;;;;;;5.38;2.72;;;;;;;8.93;57.61;96420.78;5009285;28;20032;-81
2024/03/25 00:18:22;;;;;;;5.72;2.53;;;;;;;8.98;58.23;96433.03;5027163;28;20040;-81
2024/03/25 00:20:47;;;;;;;4.05;2.17;;;;;;;8.88;57.71;96427.78;4996375;28;20390;-81
2024/03/25 00:23:13;;;;;;;6.70;2.53;;;;;;;8.92;57.87;96426.25;5030514;28;20036;-81
2024/03/25 00:25:39;;;;;;;6.65;2.70;;;;;;;9.00;57.83;96434.34;5023907;28;20451;-81
2024/03/25 00:28:04;;;;;;;6.53;2.70;;;;;;;8.94;58.11;96429.34;5021060;28;20248;-81
2024/03/25 00:30:29;;;;;;;5.65;2.35;;;;;;;9.05;56.80;96428.38;5032482;28;20499;-84
2024/03/25 00:32:55;;;;;;;4.53;2.15;;;;;;;8.99;57.39;96422.38;5030089;28;20421;-85
2024/03/25 00:35:20;;;;;;;4.03;2.13;;;;;;;8.83;57.87;96407.00;5014659;28;20033;-87
2024/03/25 00:37:46;;;;;;;3.70;2.03;;;;;;;8.85;58.28;96420.50;5013687;28;20092;-83
2024/03/25 00:40:11;;;;;;;5.00;2.53;;;;;;;8.86;57.24;96419.44;5037408;28;20033;-88
2024/03/25 00:42:37;;;;;;;3.70;2.30;;;;;;;8.68;58.48;96426.63;5010386;28;20112;-85
2024/03/25 00:45:05;;;;;;;4.85;2.80;;;;;;;8.57;57.95;96418.00;5016683;28;20029;-86
2024/03/25 00:47:30;;;;;;;2.75;2.03;;;;;;;8.49;58.67;96425.47;5005923;28;20041;-83
2024/03/25 00:49:56;;;;;;;4.57;2.50;;;;;;;8.32;58.00;96418.56;5006834;28;20638;-86
2024/03/25 00:52:22;;;;;;;7.25;2.28;;;;;;;8.36;58.18;96422.22;5007979;28;20029;-86
2024/03/25 00:54:48;;;;;;;4.25;2.03;;;;;;;8.26;58.38;96422.16;5026306;28;20611;-87
2024/03/25 00:57:13;;;;;;;5.80;2.58;;;;;;;8.21;58.84;96420.28;5022954;28;20033;-87
2024/03/25 00:59:39;;;;;;;3.75;2.20;;;;;;;8.18;58.30;96425.19;5038639;28;20474;-85
2024/03/25 01:02:05;;;;;;;4.60;2.88;;;;;;;8.13;59.22;96432.94;5012719;28;20025;-87
2024/03/25 01:04:30;;;;;;;4.25;2.20;;;;;;;8.04;59.12;96430.00;5013523;28;20043;-85
2024/03/25 01:06:55;;;;;;;4.05;2.35;;;;;;;8.02;59.38;96435.44;5030626;28;20029;-86
2024/03/25 01:09:21;;;;;;;5.18;2.42;;;;;;;7.99;59.04;96435.91;5018537;28;20033;-86
2024/03/25 01:11:48;;;;;;;4.72;2.53;;;;;;;7.99;58.83;96425.56;5009714;28;20041;-86
2024/03/25 01:14:13;;;;;;;3.97;1.92;;;;;;;7.98;58.97;96429.16;5018034;28;20041;-86
2024/03/25 01:16:39;;;;;;;5.25;1.90;;;;;;;7.92;59.85;96422.38;5033079;28;20352;-83
2024/03/25 01:19:04;;;;;;;4.18;2.40;;;;;;;7.83;59.79;96427.22;5015723;28;20033;-86
2024/03/25 01:21:30;;;;;;;5.25;2.75;;;;;;;7.87;59.53;96428.28;5023043;28;20033;-87
2024/03/25 01:23:55;;;;;;;4.57;2.28;;;;;;;7.94;60.02;96425.50;5011148;28;20501;-86
2024/03/25 01:26:21;;;;;;;5.07;2.53;;;;;;;7.87;59.97;96423.09;5005680;28;20025;-87
2024/03/25 01:28:47;;;;;;;5.55;2.65;;;;;;;7.90;59.81;96426.22;5033843;28;20031;-86
2024/03/25 01:31:13;;;;;;;5.45;2.40;;;;;;;7.98;59.38;96433.56;5034327;28;20429;-86
2024/03/25 01:33:39;;;;;;;5.53;2.67;;;;;;;7.94;60.17;96428.09;5013012;28;20440;-85
2024/03/25 01:36:05;;;;;;;5.35;2.50;;;;;;;7.95;59.77;96426.28;5008389;28;20026;-86
2024/03/25 01:38:30;;;;;;;7.15;2.90;;;;;;;7.94;60.30;96425.50;5019535;28;20432;-86
2024/03/25 01:41:07;;;;;;;6.07;2.63;;;;;;;7.94;60.57;96427.31;5043145;28;20044;-86
2024/03/25 01:43:32;;;;;;;4.55;2.42;;;;;;;7.80;61.08;96419.94;5028905;28;20556;-87
2024/03/25 01:45:57;;;;;;;5.65;2.67;;;;;;;7.80;61.03;96425.13;5031608;28;20053;-87
2024/03/25 01:48:23;;;;;;;5.03;2.78;;;;;;;7.72;60.35;96410.00;5011587;28;20470;-87
2024/03/25 01:50:48;;;;;;;5.03;2.38;;;;;;;7.73;60.74;96413.38;5022512;28;20055;-87
2024/03/25 01:53:14;;;;;;;6.70;2.50;;;;;;;7.77;61.32;96411.88;5026423;28;20029;-86
2024/03/25 01:55:40;;;;;;;6.03;2.33;;;;;;;7.75;61.21;96419.13;5003988;28;20030;-87
2024/03/25 01:58:06;;;;;;;5.05;2.90;;;;;;;7.69;61.69;96415.66;5015728;28;20239;-87
2024/03/25 02:00:32;;;;;;;4.70;2.60;;;;;;;7.79;61.54;96422.78;5030777;28;20401;-86
2024/03/25 02:02:57;;;;;;;6.32;3.03;;;;;;;7.80;61.23;96419.16;5024989;28;20412;-86
2024/03/25 02:05:23;;;;;;;5.97;2.83;;;;;;;7.73;61.65;96423.72;5026136;28;20029;-86
2024/03/25 02:07:49;;;;;;;3.83;2.80;;;;;;;7.68;61.92;96414.91;5032214;28;20424;-86
2024/03/25 02:10:15;;;;;;;5.05;3.17;;;;;;;7.69;61.45;96419.06;5006640;28;20124;-87
2024/03/25 02:12:45;;;;;;;4.43;2.33;;;;;;;7.72;61.02;96414.41;5029638;28;20510;-84
2024/03/25 02:15:13;;;;;;;4.63;2.72;;;;;;;7.63;61.11;96412.25;5035468;28;20045;-85
2024/03/25 02:17:38;;;;;;;5.45;2.88;;;;;;;7.54;61.35;96412.94;5011201;28;20052;-87
2024/03/25 02:20:10;;;;;;;5.10;2.25;;;;;;;7.55;61.55;96411.91;5018800;28;20038;-86
2024/03/25 02:22:36;;;;;;;3.38;2.25;;;;;;;7.54;61.71;96407.75;5038896;28;20044;-86
2024/03/25 02:25:05;;;;;;;6.50;2.70;;;;;;;7.54;60.80;96410.34;5031909;28;20393;-85
2024/03/25 02:27:32;;;;;;;6.20;2.67;;;;;;;7.46;61.75;96406.38;5027934;28;20032;-87
2024/03/25 02:30:13;;;;;;;3.70;2.33;;;;;;;7.59;61.72;96400.81;5010329;28;20033;-84
2024/03/25 02:32:39;;;;;;;5.25;2.58;;;;;;;7.42;60.84;96400.09;5032770;28;20127;-85
2024/03/25 02:35:07;;;;;;;5.72;2.60;;;;;;;7.38;60.82;96404.22;5019297;28;20120;-86
2024/03/25 02:37:33;;;;;;;5.85;2.75;;;;;;;7.27;61.74;96404.09;5037219;28;20521;-86
2024/03/25 02:40:00;;;;;;;6.25;2.85;;;;;;;7.24;61.46;96398.63;5027691;28;20287;-80
2024/03/25 02:42:26;;;;;;;6.35;2.50;;;;;;;7.11;61.03;96405.75;5024628;28;20033;-80
2024/03/25 02:44:54;;;;;;;5.60;2.97;;;;;;;7.11;61.82;96399.75;5025315;28;20156;-81
2024/03/25 02:47:20;;;;;;;7.55;3.15;;;;;;;7.08;61.29;96400.25;5033761;28;20700;-80
2024/03/25 02:49:46;;;;;;;4.85;2.80;;;;;;;7.01;60.99;96390.09;5023391;28;20032;-80
2024/03/25 02:52:11;;;;;;;5.80;2.35;;;;;;;6.96;61.26;96392.59;5031854;28;20029;-81
2024/03/25 02:54:37;;;;;;;5.63;3.00;;;;;;;6.89;61.79;96392.78;4997218;28;20029;-80
2024/03/25 02:57:02;;;;;;;7.32;3.42;;;;;;;6.85;61.68;96388.31;5024010;28;20037;-80
2024/03/25 02:59:28;;;;;;;6.45;2.70;;;;;;;6.96;62.11;96402.16;5020352;28;20077;-80
2024/03/25 03:01:53;;;;;;;6.47;3.05;;;;;;;6.93;61.23;96393.09;4999545;28;20133;-80
2024/03/25 03:04:19;;;;;;;4.43;2.83;;;;;;;6.90;61.87;96394.34;4999185;28;20041;-81
2024/03/25 03:06:44;;;;;;;8.57;3.33;;;;;;;6.88;61.55;96386.03;5033457;28;20029;-80
2024/03/25 03:09:10;;;;;;;6.97;3.00;;;;;;;6.91;61.27;96393.31;4998371;28;20026;-80
2024/03/25 03:11:35;;;;;;;8.07;3.00;;;;;;;6.89;61.85;96386.84;5013336;28;20095;-81
2024/03/25 03:14:01;;;;;;;6.57;2.95;;;;;;;6.83;61.97;96382.59;5024094;28;20025;-80
2024/03/25 03:16:26;;;;;;;5.53;2.85;;;;;;;6.84;61.14;96390.13;5016952;28;20127;-80
2024/03/25 03:18:52;;;;;;;5.40;2.65;;;;;;;6.87;60.68;96391.44;5027704;28;20239;-80
2024/03/25 03:21:17;;;;;;;4.95;3.15;;;;;;;6.78;61.97;96395.47;5028638;28;20038;-80
2024/03/25 03:23:42;;;;;;;5.18;2.90;;;;;;;6.74;60.99;96395.94;5028880;28;20033;-80
2024/03/25 03:26:08;;;;;;;7.25;2.72;;;;;;;6.75;61.12;96404.47;4999699;28;20119;-80
2024/03/25 03:28:33;;;;;;;5.53;3.42;;;;;;;6.71;61.42;96404.19;5028925;28;20366;-80
2024/03/25 03:30:58;;;;;;;6.15;3.03;;;;;;;6.71;61.97;96395.66;5012913;28;20033;-80
2024/03/25 03:33:24;;;;;;;7.30;2.97;;;;;;;6.62;61.19;96386.75;5009612;28;20051;-80
2024/03/25 03:35:49;;;;;;;6.05;2.92;;;;;;;6.63;61.09;96396.03;5011224;28;20036;-80
2024/03/25 03:38:14;;;;;;;6.28;2.97;;;;;;;6.67;61.28;96400.50;5021109;28;20466;-80
2024/03/25 03:40:40;;;;;;;6.38;3.10;;;;;;;6.62;62.61;96391.91;5012313;28;20517;-80
2024/03/25 03:43:05;;;;;;;5.72;2.72;;;;;;;6.59;61.99;96389.78;5012516;28;20030;-80
2024/03/25 03:45:33;;;;;;;8.43;3.42;;;;;;;6.63;62.29;96393.47;5032270;28;20032;-80
2024/03/25 03:47:58;;;;;;;6.97;2.90;;;;;;;6.56;62.09;96393.63;5009791;28;20055;-80
2024/03/25 03:50:24;;;;;;;6.63;2.88;;;;;;;6.55;61.81;96392.84;5013290;28;20120;-80
2024/03/25 03:52:49;;;;;;;7.00;2.97;;;;;;;6.58;62.00;96391.59;5025942;28;20040;-80
2024/03/25 03:55:14;;;;;;;6.85;3.45;;;;;;;6.56;61.64;96394.44;5025441;28;20064;-80
2024/03/25 03:57:42;;;;;;;7.55;3.78;;;;;;;6.56;62.43;96394.44;5009518;28;20071;-80
2024/03/25 04:00:08;;;;;;;8.57;4.20;;;;;;;6.54;61.79;96385.31;5025134;28;20032;-80
2024/03/25 04:02:34;;;;;;;5.18;2.95;;;;;;;6.52;62.31;96388.16;4999894;28;20029;-85
2024/03/25 04:04:59;;;;;;;7.88;3.28;;;;;;;6.53;62.65;96381.19;5024295;28;20037;-84
2024/03/25 04:07:26;;;;;;;7.45;3.95;;;;;;;6.57;61.78;96384.84;5018777;28;20087;-85
2024/03/25 04:09:53;;;;;;;6.18;3.03;;;;;;;6.72;62.56;96397.22;5026765;28;20111;-86
2024/03/25 04:12:19;;;;;;;7.18;3.40;;;;;;;6.64;61.55;96390.63;5014732;28;20057;-85
2024/03/25 04:14:47;;;;;;;9.02;4.13;;;;;;;6.79;62.41;96395.25;5015004;28;20514;-86
2024/03/25 04:17:12;;;;;;;7.75;4.38;;;;;;;6.76;61.94;96382.78;5008412;28;20059;-85
2024/03/25 04:19:37;;;;;;;8.30;4.50;;;;;;;6.81;62.48;96395.00;5008523;28;20523;-86
2024/03/25 04:22:03;;;;;;;11.45;4.90;;;;;;;6.86;62.86;96402.84;5001922;28;20030;-85
2024/03/25 04:24:28;;;;;;;10.07;4.95;;;;;;;6.84;62.62;96399.72;5033461;28;20501;-85
2024/03/25 04:26:54;;;;;;;7.85;4.20;;;;;;;6.81;62.57;96392.41;5031334;28;20032;-85
2024/03/25 04:29:19;;;;;;;10.98;4.78;;;;;;;6.94;63.24;96394.66;5010091;28;20064;-85
2024/03/25 04:31:45;;;;;;;9.30;4.93;;;;;;;6.96;63.12;96391.81;5008566;28;20190;-84
2024/03/25 04:34:11;;;;;;;10.82;6.15;;;;;;;7.02;63.25;96393.44;5008515;28;20393;-86
2024/03/25 04:36:36;;;;;;;10.52;5.05;;;;;;;6.94;62.72;96379.91;5010176;28;20021;-86
2024/03/25 04:39:02;;;;;;;9.57;5.50;;;;;;;6.96;63.56;96381.47;5008718;28;20032;-84
2024/03/25 04:41:28;;;;;;;10.25;5.47;;;;;;;7.00;63.56;96385.91;5002564;28;20141;-87
2024/03/25 04:43:53;;;;;;;10.60;5.15;;;;;;;6.92;63.20;96381.16;5025615;28;20227;-85
2024/03/25 04:46:19;;;;;;;11.80;6.05;;;;;;;6.92;63.11;96384.53;5023225;28;20044;-86
2024/03/25 04:48:44;;;;;;;13.20;5.55;;;;;;;6.98;63.25;96393.16;5016744;28;20029;-83
2024/03/25 04:51:10;;;;;;;10.23;5.35;;;;;;;6.92;62.95;96392.31;5032081;28;20029;-86
2024/03/25 04:53:35;;;;;;;12.70;6.13;;;;;;;6.93;63.15;96395.66;5008069;28;20037;-85
2024/03/25 04:56:01;;;;;;;9.05;6.07;;;;;;;7.03;63.12;96402.78;5013753;28;20033;-86
2024/03/25 04:58:26;;;;;;;10.95;5.53;;;;;;;7.08;63.82;96405.44;5009069;28;20036;-87
2024/03/25 05:00:52;;;;;;;11.48;6.15;;;;;;;7.08;62.83;96408.03;5027781;28;20025;-80
2024/03/25 05:03:18;;;;;;;10.23;5.65;;;;;;;7.14;62.89;96407.03;5023336;28;20030;-81
2024/03/25 05:05:44;;;;;;;10.55;5.55;;;;;;;7.16;63.22;96406.81;5022853;28;20032;-80
2024/03/25 05:08:09;;;;;;;11.52;5.97;;;;;;;7.15;62.67;96406.03;5034201;28;20033;-80
2024/03/25 05:10:35;;;;;;;11.45;6.13;;;;;;;7.16;63.25;96396.47;5030406;28;20108;-80
2024/03/25 05:13:00;;;;;;;12.40;6.50;;;;;;;7.12;63.21;96396.16;5014621;28;20036;-80
2024/03/25 05:15:25;;;;;;;14.05;6.28;;;;;;;7.20;63.15;96389.78;5017895;28;20108;-80
2024/03/25 05:17:51;;;;;;;10.65;6.07;;;;;;;7.18;62.12;96397.78;5037652;28;20501;-80
2024/03/25 05:20:16;;;;;;;9.40;5.75;;;;;;;7.22;62.56;96398.88;5024443;28;20120;-80
2024/03/25 05:22:41;;;;;;;12.85;6.53;;;;;;;7.25;62.14;96395.81;5035556;28;20395;-80
2024/03/25 05:25:07;;;;;;;11.63;5.78;;;;;;;7.20;62.76;96398.34;5026672;28;20482;-80
2024/03/25 05:27:33;;;;;;;9.48;6.40;;;;;;;7.20;63.55;96392.38;5027583;28;20111;-80
2024/03/25 05:29:58;;;;;;;10.95;5.93;;;;;;;7.12;62.58;96391.75;5009934;28;20084;-80
2024/03/25 05:32:25;;;;;;;12.60;5.70;;;;;;;7.17;62.59;96398.03;5013749;28;20025;-80
2024/03/25 05:34:50;;;;;;;13.20;6.53;;;;;;;7.25;63.12;96389.84;5038937;28;20037;-80
2024/03/25 05:37:15;;;;;;;11.60;5.68;;;;;;;7.28;62.60;96392.72;5009254;28;20064;-80
2024/03/25 05:39:41;;;;;;;12.60;6.45;;;;;;;7.27;62.94;96385.97;5037604;28;20033;-80
2024/03/25 05:42:07;;;;;;;11.40;5.80;;;;;;;7.28;62.29;96384.97;5011656;28;20508;-80
2024/03/25 05:44:32;;;;;;;13.65;6.60;;;;;;;7.23;62.60;96392.69;5014497;28;20032;-80
2024/03/25 05:46:58;;;;;;;12.00;6.45;;;;;;;7.19;63.15;96385.63;5027254;28;20037;-80
2024/03/25 05:49:23;;;;;;;17.38;7.47;;;;;;;7.29;62.70;96391.69;5033995;28;20109;-80
2024/03/25 05:51:48;;;;;;;12.48;6.72;;;;;;;7.24;63.65;96391.63;5026740;28;20025;-80
2024/03/25 05:54:14;;;;;;;13.98;7.82;;;;;;;7.29;63.00;96406.47;5024599;28;20032;-80
2024/03/25 05:56:39;;;;;;;15.25;7.10;;;;;;;7.29;63.11;96401.28;5018638;28;20200;-80
2024/03/25 05:59:04;;;;;;;13.95;7.20;;;;;;;7.41;62.69;96414.88;5041062;28;20048;-80
2024/03/25 06:01:30;;;;;;;16.88;7.40;;;;;;;7.36;63.09;96408.88;5012044;28;20028;-79
2024/03/25 06:03:55;;;;;;;15.18;7.70;;;;;;;7.38;63.25;96405.00;5024568;28;20072;-81
2024/03/25 06:06:20;;;;;;;14.93;6.90;;;;;;;7.39;62.53;96406.56;5021635;28;20480;-80
2024/03/25 06:08:46;;;;;;;13.07;7.00;;;;;;;7.39;62.31;96408.38;5018836;28;20024;-80
2024/03/25 06:11:11;;;;;;;14.13;7.78;;;;;;;7.46;63.00;96414.16;5019266;28;20041;-84
2024/03/25 06:13:36;;;;;;;12.90;6.90;;;;;;;7.48;63.36;96399.16;5025755;28;20044;-85
2024/03/25 06:16:02;;;;;;;14.88;8.45;;;;;;;7.51;63.30;96409.03;5011017;28;20033;-86
2024/03/25 06:18:27;;;;;;;13.13;7.25;;;;;;;7.55;62.85;96415.28;5019200;28;20041;-85
2024/03/25 06:20:53;;;;;;;15.05;8.10;;;;;;;7.56;62.87;96413.50;5016788;28;20060;-80
2024/03/25 06:23:26;;;;;;;15.10;7.93;;;;;;;7.53;62.07;96419.91;5020465;28;20068;-80
2024/03/25 06:25:52;;;;;;;14.13;7.55;;;;;;;7.43;62.35;96412.03;5007380;28;20493;-79
2024/03/25 06:28:19;;;;;;;14.05;7.00;;;;;;;7.53;63.78;96411.38;5010545;28;20057;-80
2024/03/25 06:36:14;;;;;;;12.65;6.63;;;;;;;7.53;62.78;96426.91;5025850;28;20396;-80
2024/03/25 06:38:42;;;;;;;13.23;7.13;;;;;;;7.54;63.05;96426.69;5010899;28;20025;-81
2024/03/25 06:41:07;;;;;;;13.75;7.20;;;;;;;7.57;62.39;96440.94;5036109;28;20079;-80
2024/03/25 06:43:33;;;;;;;12.25;6.47;;;;;;;7.50;63.09;96436.75;5011310;28;20073;-81
2024/03/25 06:45:59;;;;;;;14.05;7.20;;;;;;;7.60;63.29;96432.69;5038858;28;20029;-81
2024/03/25 06:48:24;;;;;;;14.18;7.80;;;;;;;7.41;63.94;96421.88;5024717;28;20175;-81
2024/03/25 06:50:58;;;;;;;16.08;7.90;;;;;;;7.76;63.36;96426.66;5020846;28;20025;-81
2024/03/25 06:53:23;;;;;;;13.88;6.88;;;;;;;7.71;63.50;96428.38;5017491;28;20070;-80
2024/03/25 06:55:53;;;;;;;14.95;7.70;;;;;;;7.75;63.08;96426.88;5008046;28;21198;-80
2024/03/25 06:58:19;;;;;;;14.63;7.15;;;;;;;7.78;64.05;96428.97;5032454;28;20037;-81
2024/03/25 07:00:45;;;;;;;14.68;7.38;;;;;;;7.71;63.25;96423.19;5020331;28;20029;-81
2024/03/25 07:03:12;;;;;;;15.23;7.32;;;;;;;7.78;63.16;96423.78;5001485;28;20045;-81
2024/03/25 07:05:37;;;;;;;18.00;8.45;;;;;;;7.93;63.74;96421.34;5038530;28;20037;-81
2024/03/25 07:08:03;;;;;;;16.58;8.10;;;;;;;7.99;63.98;96422.97;5019456;28;20037;-81
2024/03/25 07:10:28;;;;;;;15.77;7.82;;;;;;;7.89;63.72;96417.69;5019497;28;20576;-81
2024/03/25 07:12:53;;;;;;;16.48;8.77;;;;;;;7.96;64.30;96420.84;5026513;28;20033;-80
2024/03/25 07:15:19;;;;;;;17.23;7.82;;;;;;;7.98;62.41;96429.16;5024697;28;20048;-80
2024/03/25 07:17:45;;;;;;;18.02;7.90;;;;;;;8.07;62.71;96422.53;5035980;28;20501;-81
2024/03/25 07:20:10;;;;;;;17.27;8.77;;;;;;;8.03;63.91;96425.84;5022904;28;20508;-80
2024/03/25 07:22:36;;;;;;;18.23;7.90;;;;;;;8.11;64.12;96425.41;5026704;28;20532;-81
2024/03/25 07:25:01;;;;;;;19.23;8.63;;;;;;;8.30;64.00;96417.25;5024828;28;20095;-81
2024/03/25 07:27:26;;;;;;;18.75;9.13;;;;;;;8.25;64.27;96418.75;5038188;28;20039;-80
2024/03/25 07:29:52;;;;;;;19.65;7.97;;;;;;;8.25;63.82;96425.78;5018857;28;20118;-81
2024/03/25 07:32:17;;;;;;;16.65;7.75;;;;;;;8.39;64.05;96429.50;5038308;28;20037;-84
2024/03/25 07:34:43;;;;;;;14.02;8.13;;;;;;;8.51;62.20;96431.94;5035411;28;20029;-86
2024/03/25 07:37:08;;;;;;;16.15;8.73;;;;;;;8.50;62.30;96429.59;5004418;28;20253;-87
2024/03/25 07:39:34;;;;;;;17.17;9.02;;;;;;;8.39;62.73;96416.53;5011519;28;20032;-86
2024/03/25 07:42:01;;;;;;;16.77;8.98;;;;;;;8.58;62.99;96424.72;5007979;28;20043;-88
2024/03/25 07:44:30;;;;;;;16.70;8.20;;;;;;;8.76;62.98;96420.19;5017467;28;20037;-84
2024/03/25 07:46:56;;;;;;;17.92;9.15;;;;;;;8.77;62.83;96414.75;5007696;28;20086;-87
2024/03/25 07:49:21;;;;;;;17.83;8.98;;;;;;;9.02;62.62;96412.53;5016572;28;20029;-85
2024/03/25 07:51:46;;;;;;;15.13;7.90;;;;;;;9.21;61.80;96423.25;5029319;28;20300;-86
2024/03/25 07:54:16;;;;;;;16.05;8.75;;;;;;;9.26;60.52;96407.69;5027328;28;20063;-87
2024/03/25 07:56:41;;;;;;;15.27;8.25;;;;;;;9.26;59.78;96405.09;5015126;28;20029;-87
2024/03/25 07:59:07;;;;;;;15.27;8.25;;;;;;;9.37;59.74;96419.66;5023574;28;20037;-86
2024/03/25 08:01:32;;;;;;;14.57;8.02;;;;;;;9.37;59.10;96423.06;5026620;28;20029;-85
2024/03/25 08:03:57;;;;;;;14.52;8.48;;;;;;;9.48;59.95;96416.09;5026075;28;20034;-86
2024/03/25 08:06:23;;;;;;;16.17;8.10;;;;;;;9.54;59.88;96420.28;5025846;28;20347;-84
2024/03/25 08:08:49;;;;;;;13.57;7.97;;;;;;;9.50;59.41;96427.00;5017381;28;20033;-86
2024/03/25 08:11:14;;;;;;;12.60;7.55;;;;;;;9.53;59.96;96423.13;5025174;28;20028;-87
2024/03/25 08:13:40;;;;;;;14.07;7.85;;;;;;;9.79;59.09;96423.19;5017746;28;20025;-86
2024/03/25 08:16:05;;;;;;;13.25;7.25;;;;;;;10.04;59.17;96428.41;5020685;28;20048;-86
2024/03/25 08:18:31;;;;;;;14.25;6.93;;;;;;;10.23;58.62;96433.88;5018846;28;20040;-85
2024/03/25 08:20:57;;;;;;;12.13;7.07;;;;;;;10.53;57.96;96421.16;5004786;28;20056;-86
2024/03/25 08:23:23;;;;;;;12.25;6.70;;;;;;;10.65;57.46;96421.66;5005610;28;20116;-87
2024/03/25 08:25:49;;;;;;;11.20;7.13;;;;;;;10.72;57.08;96424.00;5024071;28;20029;-86
2024/03/25 08:28:14;;;;;;;14.15;7.05;;;;;;;11.02;55.84;96428.34;5039977;28;20037;-86
2024/03/25 08:30:39;;;;;;;11.55;7.40;;;;;;;11.15;55.03;96422.56;5020636;28;20043;-87
2024/03/25 08:33:05;;;;;;;11.85;6.65;;;;;;;11.21;55.76;96431.16;5023791;28;20052;-85
2024/03/25 08:35:33;;;;;;;11.07;7.13;;;;;;;11.31;54.67;96423.31;5018144;28;20473;-88
2024/03/25 08:37:59;;;;;;;11.48;6.72;;;;;;;11.63;53.96;96424.69;5010681;28;20032;-87
2024/03/25 08:40:24;;;;;;;14.30;7.00;;;;;;;11.74;53.41;96413.19;5011559;28;20466;-88
2024/03/25 08:42:49;;;;;;;11.00;6.38;;;;;;;12.03;53.88;96409.09;5013717;28;20025;-81
2024/03/25 08:45:15;;;;;;;8.35;5.72;;;;;;;12.27;52.73;96409.97;5040494;28;20558;-81
2024/03/25 08:47:42;;;;;;;9.35;5.75;;;;;;;12.61;52.75;96409.16;5033167;28;20033;-81
2024/03/25 08:50:08;;;;;;;9.88;6.55;;;;;;;12.86;51.22;96405.50;5012508;28;20037;-81
2024/03/25 08:52:33;;;;;;;8.18;5.72;;;;;;;13.04;50.37;96405.81;5037654;28;20163;-82
2024/03/25 08:54:58;;;;;;;10.88;5.38;;;;;;;13.06;50.57;96398.50;5011525;28;20537;-81
2024/03/25 08:57:24;;;;;;;7.10;5.35;;;;;;;13.32;50.02;96401.63;5019549;28;20381;-81
2024/03/25 08:59:49;;;;;;;9.77;4.97;;;;;;;13.16;49.77;96389.75;5024274;28;20489;-81
2024/03/25 09:02:14;;;;;;;10.95;5.50;;;;;;;13.47;49.50;96390.19;5013771;28;20037;-81
2024/03/25 09:04:40;;;;;;;7.13;5.07;;;;;;;13.66;49.25;96383.13;5030332;28;20040;-82
2024/03/25 09:07:05;;;;;;;6.82;4.93;;;;;;;13.72;46.40;96378.59;5012789;28;20035;-81
2024/03/25 09:12:14;;;;;;;9.13;5.60;;;;;;;14.16;46.15;96361.69;5029934;28;20034;-81
2024/03/25 09:14:40;;;;;;;6.53;3.55;;;;;;;14.08;45.55;96354.47;5027001;28;20482;-81
2024/03/25 09:17:05;;;;;;;4.10;3.20;;;;;;;13.77;44.79;96351.56;5019516;28;20493;-81
2024/03/25 09:19:31;;;;;;;5.20;3.05;;;;;;;13.87;45.46;96343.56;5013392;28;20060;-81
2024/03/25 09:21:56;;;;;;;4.57;2.70;;;;;;;13.98;44.07;96338.94;5031031;28;20569;-82
2024/03/25 09:24:21;;;;;;;3.42;2.00;;;;;;;14.10;42.16;96341.88;4995636;28;20026;-81
2024/03/25 09:26:49;;;;;;;10.15;5.90;;;;;;;14.22;43.67;96333.56;5025769;28;20040;-81
2024/03/25 09:29:15;;;;;;;8.95;5.10;;;;;;;14.45;43.81;96323.25;5037032;28;20441;-81
2024/03/25 09:31:40;;;;;;;7.78;4.25;;;;;;;14.48;44.30;96326.06;5040536;28;20033;-81
2024/03/25 09:34:05;;;;;;;4.78;3.28;;;;;;;14.66;41.93;96321.06;4995079;28;20068;-81
2024/03/25 09:36:31;;;;;;;7.45;3.72;;;;;;;14.15;43.97;96317.47;5019661;28;20116;-80
2024/03/25 09:38:56;;;;;;;3.28;2.88;;;;;;;14.56;41.20;96319.38;5009747;28;20039;-81
2024/03/25 09:41:22;;;;;;;3.67;2.50;;;;;;;14.35;41.11;96311.09;5016487;28;20095;-81
2024/03/25 09:43:51;;;;;;;3.50;2.40;;;;;;;14.49;39.80;96306.66;5030557;28;20433;-86
2024/03/25 09:46:17;;;;;;;4.70;2.53;;;;;;;14.37;40.77;96301.88;5037632;28;20048;-85
2024/03/25 09:48:42;;;;;;;3.28;2.10;;;;;;;14.67;37.50;96302.41;4995172;28;20485;-86
2024/03/25 09:51:09;;;;;;;4.57;2.28;;;;;;;14.70;38.54;96301.84;4994461;28;20037;-86
2024/03/25 09:53:35;;;;;;;3.35;1.80;;;;;;;14.26;39.22;96297.91;5015434;28;20506;-81
2024/03/25 09:56:00;;;;;;;4.85;2.88;;;;;;;14.40;41.53;96293.44;4997158;28;20056;-80
2024/03/25 09:58:26;;;;;;;2.50;1.80;;;;;;;14.50;38.90;96286.50;4997389;28;20123;-81
2024/03/25 10:00:51;;;;;;;5.13;1.90;;;;;;;14.63;40.03;96285.72;5030624;28;20032;-81
2024/03/25 10:03:17;;;;;;;2.63;1.60;;;;;;;14.71;39.82;96284.28;5033231;28;20037;-81
2024/03/25 10:05:42;;;;;;;4.32;2.08;;;;;;;15.06;39.81;96287.22;5022611;28;20037;-81
2024/03/25 10:08:08;;;;;;;5.15;2.40;;;;;;;14.97;38.41;96274.03;5003456;28;20485;-81
2024/03/25 10:10:34;;;;;;;3.05;2.00;;;;;;;14.98;41.45;96283.47;5016551;28;20406;-81
2024/03/25 10:12:59;;;;;;;3.50;2.15;;;;;;;15.05;37.44;96280.44;5024197;28;20036;-81
2024/03/25 10:15:27;;;;;;;4.57;2.40;;;;;;;15.07;37.07;96283.53;5027358;28;20029;-81
2024/03/25 10:17:52;;;;;;;3.85;1.88;;;;;;;15.02;36.77;96279.16;5012673;28;20061;-81
2024/03/25 10:20:18;;;;;;;3.60;1.98;;;;;;;15.07;36.68;96267.81;5005781;28;20064;-81
2024/03/25 10:22:45;;;;;;;2.55;1.77;;;;;;;14.77;38.37;96265.53;5013953;28;20083;-80
2024/03/25 10:25:25;;;;;;;2.85;1.70;;;;;;;14.90;37.62;96265.81;4997415;28;20091;-82
2024/03/25 10:27:58;;;;;;;2.92;1.98;;;;;;;14.71;35.71;96250.22;5030907;28;20037;-81
2024/03/25 10:30:24;;;;;;;3.03;1.80;;;;;;;14.19;35.38;96253.78;5029718;28;20533;-81
2024/03/25 10:33:00;;;;;;;3.78;2.13;;;;;;;13.92;37.63;96236.19;5004668;28;20026;-81
2024/03/25 10:35:27;;;;;;;2.17;1.38;;;;;;;13.52;39.06;96251.50;5039922;28;20433;-81
2024/03/25 10:37:58;;;;;;;2.13;1.30;;;;;;;13.48;40.05;96237.44;5042241;28;20494;-81
2024/03/25 10:40:27;;;;;;;1.80;1.40;;;;;;;13.64;39.55;96225.69;5014288;28;20489;-81
2024/03/25 10:43:08;;;;;;;2.75;1.70;;;;;;;13.72;38.69;96226.09;5027905;28;20025;-81
2024/03/25 10:45:45;;;;;;;2.10;1.83;;;;;;;13.48;38.25;96225.13;5032956;28;20040;-81
2024/03/25 10:48:27;;;;;;;2.65;1.50;;;;;;;13.52;38.98;96222.75;5034593;28;20029;-81
2024/03/25 10:50:54;;;;;;;2.38;1.40;;;;;;;13.57;38.17;96217.44;5029143;28;20489;-81
2024/03/25 10:53:20;;;;;;;5.63;2.97;;;;;;;14.07;38.06;96216.84;5004081;28;20051;-81
2024/03/25 10:55:48;;;;;;;3.90;2.22;;;;;;;14.54;36.81;96207.00;5030826;28;20069;-80
2024/03/25 10:58:15;;;;;;;3.28;1.40;;;;;;;14.64;37.37;96203.44;4998550;28;20254;-81
2024/03/25 11:00:41;;;;;;;2.33;1.50;;;;;;;14.96;37.71;96199.88;5015766;28;20032;-81
2024/03/25 11:03:33;;;;;;;3.05;1.63;;;;;;;15.63;38.41;96197.56;5030655;28;20068;-87
2024/03/25 11:05:59;;;;;;;3.03;1.55;;;;;;;15.78;34.55;96186.69;5012735;28;20025;-88
2024/03/25 11:08:31;;;;;;;2.30;1.70;;;;;;;15.83;34.70;96189.16;5026721;28;20075;-87
2024/03/25 11:10:57;;;;;;;2.75;1.40;;;;;;;16.25;33.06;96183.63;5005773;28;20095;-85
2024/03/25 11:13:22;;;;;;;2.53;1.58;;;;;;;16.53;33.35;96189.38;5014693;28;20033;-85
2024/03/25 11:15:49;;;;;;;4.10;1.52;;;;;;;16.07;31.85;96182.78;5033147;28;20063;-85
2024/03/25 11:18:23;;;;;;;2.00;1.35;;;;;;;15.94;33.97;96181.03;5012303;28;20042;-86
2024/03/25 11:21:00;;;;;;;1.98;1.33;;;;;;;15.50;33.77;96181.56;5019358;28;20048;-85
2024/03/25 11:23:26;;;;;;;2.42;1.38;;;;;;;15.59;34.64;96178.22;5012350;28;20029;-81
2024/03/25 11:25:55;;;;;;;3.35;1.88;;;;;;;15.71;34.82;96170.56;5015435;28;20058;-81
2024/03/25 11:28:27;;;;;;;2.30;1.35;;;;;;;16.04;34.79;96162.38;5012008;28;20041;-81
2024/03/25 11:30:52;;;;;;;2.15;1.33;;;;;;;16.25;35.15;96167.88;5019019;28;20029;-81
2024/03/25 11:33:18;;;;;;;2.00;1.45;;;;;;;16.24;34.22;96163.69;5027924;28;20043;-81
2024/03/25 11:35:43;;;;;;;1.98;1.02;;;;;;;16.41;33.90;96153.19;5031680;28;20061;-79
2024/03/25 11:38:08;;;;;;;2.28;1.13;;;;;;;16.65;35.29;96152.00;5022736;28;20044;-80
2024/03/25 11:40:35;;;;;;;2.90;1.73;;;;;;;16.76;34.64;96152.47;5014380;28;20033;-81